Time;durP1;ratioP1;P1;durP2;ratioP2;P2;SDS_P1;SDS_P2;PMS_P1;PMS_P2;Temp;Humidity;BMP_temperature;BMP_pressure;BME280_temperature;BME280_humidity;BME280_pressure;Samples;Min_cycle;Max_cycle;Signal;HPM_P1;HPM_P2
2022/07/04 00:00:27;;;;;;;0.20;0.20;;;14.50;99.90;;;;;;6209900;23;20021;-73
2022/07/04 00:02:53;;;;;;;0.20;0.20;;;14.40;99.90;;;;;;6207700;23;20055;-73
2022/07/04 00:05:19;;;;;;;0.20;0.20;;;14.40;99.90;;;;;;6184266;23;20039;-73
2022/07/04 00:07:47;;;;;;;0.20;0.20;;;14.40;99.90;;;;;;6209221;23;20341;-73
2022/07/04 00:10:16;;;;;;;0.10;0.10;;;14.30;99.90;;;;;;6209431;23;20416;-73
2022/07/04 00:12:42;;;;;;;0.13;0.13;;;14.30;99.90;;;;;;6209596;23;20017;-72
2022/07/04 00:15:10;;;;;;;0.20;0.20;;;14.30;99.90;;;;;;6182862;23;20020;-73
2022/07/04 00:17:36;;;;;;;0.20;0.20;;;14.30;99.90;;;;;;6210344;23;20336;-74
2022/07/04 00:20:03;;;;;;;0.10;0.10;;;14.40;99.90;;;;;;6209362;23;20199;-73
2022/07/04 00:22:29;;;;;;;0.10;0.10;;;14.30;99.90;;;;;;6182068;23;20421;-73
2022/07/04 00:24:54;;;;;;;0.20;0.20;;;14.30;99.90;;;;;;6208521;23;20043;-74
2022/07/04 00:27:20;;;;;;;0.15;0.15;;;14.30;99.90;;;;;;6210023;23;20019;-73
2022/07/04 00:29:46;;;;;;;0.20;0.20;;;14.30;99.90;;;;;;6209185;23;20032;-73
2022/07/04 00:32:11;;;;;;;0.10;0.10;;;14.30;99.90;;;;;;6209145;23;20013;-73
2022/07/04 00:34:37;;;;;;;0.13;0.13;;;14.30;99.90;;;;;;6209543;23;20012;-73
2022/07/04 00:37:03;;;;;;;0.20;0.20;;;14.30;99.90;;;;;;6208510;23;20027;-73
2022/07/04 00:39:29;;;;;;;0.10;0.10;;;14.20;99.90;;;;;;6208259;23;20425;-73
2022/07/04 00:41:54;;;;;;;0.20;0.20;;;14.20;99.90;;;;;;6209043;23;20012;-73
2022/07/04 00:44:20;;;;;;;0.20;0.20;;;14.20;99.90;;;;;;6208063;23;20119;-73
2022/07/04 00:46:47;;;;;;;0.20;0.20;;;14.20;99.90;;;;;;6208906;23;20047;-73
2022/07/04 00:49:15;;;;;;;0.10;0.10;;;14.20;99.90;;;;;;6209581;23;20078;-73
2022/07/04 00:51:42;;;;;;;0.20;0.20;;;14.20;99.90;;;;;;6204645;23;20020;-73
2022/07/04 00:54:10;;;;;;;0.20;0.20;;;14.20;99.90;;;;;;6205664;23;20071;-73
2022/07/04 00:56:37;;;;;;;0.17;0.17;;;14.20;99.90;;;;;;6206357;23;20124;-73
2022/07/04 00:59:03;;;;;;;0.10;0.10;;;14.10;99.90;;;;;;6206732;23;20031;-74
2022/07/04 01:01:29;;;;;;;0.20;0.20;;;14.10;99.90;;;;;;6209748;23;20055;-74
2022/07/04 01:03:56;;;;;;;0.20;0.20;;;14.10;99.90;;;;;;6209666;23;20021;-73
2022/07/04 01:06:22;;;;;;;0.13;0.13;;;14.10;99.90;;;;;;6209123;23;20016;-73
2022/07/04 01:08:48;;;;;;;0.10;0.10;;;14.10;99.90;;;;;;6207313;23;20038;-74
2022/07/04 01:11:15;;;;;;;0.10;0.10;;;14.10;99.90;;;;;;6208533;23;20143;-73
2022/07/04 01:13:41;;;;;;;0.20;0.20;;;14.10;99.90;;;;;;6179941;23;20078;-73
2022/07/04 01:16:10;;;;;;;0.10;0.10;;;14.00;99.90;;;;;;6209265;23;20453;-74
2022/07/04 01:18:37;;;;;;;0.10;0.10;;;14.00;99.90;;;;;;6209565;23;20457;-74
2022/07/04 01:21:03;;;;;;;0.20;0.20;;;13.90;99.90;;;;;;6208838;23;20027;-73
2022/07/04 01:23:29;;;;;;;0.20;0.20;;;14.00;99.90;;;;;;6181710;23;20015;-73
2022/07/04 01:25:57;;;;;;;0.10;0.10;;;13.90;99.90;;;;;;6196710;23;20912;-73
2022/07/04 01:28:23;;;;;;;0.20;0.20;;;13.90;99.90;;;;;;6179591;23;20317;-73
2022/07/04 01:30:49;;;;;;;0.20;0.20;;;13.90;99.90;;;;;;6208940;23;20020;-72
2022/07/04 01:33:17;;;;;;;0.20;0.20;;;13.80;99.90;;;;;;6207873;23;20013;-72
2022/07/04 01:35:46;;;;;;;0.20;0.20;;;13.80;99.90;;;;;;6209629;23;20031;-73
2022/07/04 01:38:12;;;;;;;0.10;0.10;;;13.80;99.90;;;;;;6181029;23;20147;-72
2022/07/04 01:40:38;;;;;;;0.10;0.10;;;13.70;99.90;;;;;;6208423;23;20052;-73
2022/07/04 01:43:03;;;;;;;0.10;0.10;;;13.70;99.90;;;;;;6180533;23;20020;-73
2022/07/04 01:45:29;;;;;;;0.17;0.17;;;13.60;99.90;;;;;;6210147;23;20128;-72
2022/07/04 01:47:56;;;;;;;0.13;0.13;;;13.60;99.90;;;;;;6195382;23;20441;-73
2022/07/04 01:50:22;;;;;;;0.10;0.10;;;13.60;99.90;;;;;;6181949;23;20059;-73
2022/07/04 01:52:48;;;;;;;0.10;0.10;;;13.60;99.90;;;;;;6207969;23;20494;-72
2022/07/04 01:55:13;;;;;;;0.10;0.10;;;13.60;99.90;;;;;;6208538;23;20078;-72
2022/07/04 01:57:39;;;;;;;0.20;0.20;;;13.60;99.90;;;;;;6181610;23;20020;-72
2022/07/04 02:02:52;;;;;;;0.17;0.17;;;13.50;99.90;;;;;;6182268;23;20017;-72
2022/07/04 02:05:18;;;;;;;0.10;0.10;;;13.40;99.90;;;;;;6207488;23;20464;-73
2022/07/04 02:07:44;;;;;;;0.10;0.10;;;13.40;99.90;;;;;;6206971;23;20020;-72
2022/07/04 02:10:11;;;;;;;0.20;0.20;;;13.40;99.90;;;;;;6207388;23;20150;-73
2022/07/04 02:15:38;;;;;;;0.10;0.10;;;13.30;99.90;;;;;;6194674;23;20024;-73
2022/07/04 02:18:06;;;;;;;0.17;0.17;;;13.30;99.90;;;;;;6181799;23;20310;-72
2022/07/04 02:20:33;;;;;;;0.20;0.20;;;13.30;99.90;;;;;;6181595;23;20034;-72
2022/07/04 02:22:58;;;;;;;0.10;0.10;;;13.30;99.90;;;;;;6180089;23;20020;-72
2022/07/04 02:25:24;;;;;;;0.13;0.13;;;13.30;99.90;;;;;;6209229;23;20092;-73
2022/07/04 02:27:50;;;;;;;0.13;0.13;;;13.30;99.90;;;;;;6208600;23;20096;-72
2022/07/04 02:30:16;;;;;;;0.20;0.20;;;13.30;99.90;;;;;;6180172;23;20458;-72
2022/07/04 02:32:42;;;;;;;0.20;0.20;;;13.20;99.90;;;;;;6209860;23;20099;-75
2022/07/04 02:35:09;;;;;;;0.20;0.20;;;13.30;99.90;;;;;;6207912;23;20452;-73
2022/07/04 02:37:35;;;;;;;0.10;0.10;;;13.30;99.90;;;;;;6207066;23;20410;-72
2022/07/04 02:40:01;;;;;;;0.10;0.10;;;13.30;99.90;;;;;;6182316;23;20086;-73
2022/07/04 02:42:34;;;;;;;0.10;0.10;;;13.30;99.90;;;;;;6181214;23;20078;-72
2022/07/04 02:45:00;;;;;;;0.15;0.15;;;13.30;99.90;;;;;;6207081;23;20013;-73
2022/07/04 02:47:26;;;;;;;0.10;0.10;;;13.30;99.90;;;;;;6209407;23;20024;-72
2022/07/04 02:49:51;;;;;;;0.15;0.15;;;13.30;99.90;;;;;;6210051;23;20039;-72
2022/07/04 02:52:17;;;;;;;0.10;0.10;;;13.40;99.90;;;;;;6182932;23;20447;-73
2022/07/04 02:54:44;;;;;;;0.20;0.20;;;13.30;99.90;;;;;;6210281;23;20042;-72
2022/07/04 02:57:10;;;;;;;0.20;0.20;;;13.40;99.90;;;;;;6184883;23;20016;-75
2022/07/04 02:59:36;;;;;;;0.10;0.10;;;13.40;99.90;;;;;;6208776;23;20037;-73
2022/07/04 03:02:01;;;;;;;0.10;0.10;;;13.40;99.90;;;;;;6183389;23;20043;-72
2022/07/04 03:04:27;;;;;;;0.10;0.10;;;13.40;99.90;;;;;;6208128;23;20044;-73
2022/07/04 03:06:53;;;;;;;0.20;0.20;;;13.40;99.90;;;;;;6208558;23;20017;-72
2022/07/04 03:09:18;;;;;;;0.10;0.10;;;13.40;99.90;;;;;;6210577;23;20021;-73
2022/07/04 03:11:44;;;;;;;0.20;0.20;;;13.40;99.90;;;;;;6210141;23;20017;-72
2022/07/04 03:14:10;;;;;;;0.20;0.20;;;13.50;99.90;;;;;;6210302;23;20082;-72
2022/07/04 03:16:36;;;;;;;0.10;0.10;;;13.50;99.90;;;;;;6183819;23;20028;-72
2022/07/04 03:19:01;;;;;;;0.10;0.10;;;13.50;99.90;;;;;;6204530;23;20175;-72
2022/07/04 03:21:27;;;;;;;0.20;0.20;;;13.50;99.90;;;;;;6211157;23;20016;-73
2022/07/04 03:23:58;;;;;;;0.20;0.20;;;13.50;99.90;;;;;;6210558;23;20099;-72
2022/07/04 03:26:33;;;;;;;0.10;0.10;;;13.50;99.90;;;;;;6209831;23;20348;-73
2022/07/04 03:28:59;;;;;;;0.10;0.10;;;13.50;99.90;;;;;;6208104;23;20017;-73
2022/07/04 03:31:26;;;;;;;0.10;0.10;;;13.60;99.90;;;;;;6183269;23;20017;-73
2022/07/04 03:33:52;;;;;;;0.20;0.20;;;13.60;99.90;;;;;;6207024;23;20085;-72
2022/07/04 03:36:18;;;;;;;0.20;0.20;;;13.70;99.90;;;;;;6182233;23;20524;-73
2022/07/04 03:38:44;;;;;;;0.20;0.20;;;13.70;99.90;;;;;;6209825;23;20013;-72
2022/07/04 03:41:10;;;;;;;0.20;0.20;;;13.70;99.90;;;;;;6209780;23;20020;-72
2022/07/04 03:43:35;;;;;;;0.20;0.20;;;13.70;99.90;;;;;;6209024;23;20091;-72
2022/07/04 03:46:01;;;;;;;0.20;0.20;;;13.70;99.90;;;;;;6209540;23;20016;-72
2022/07/04 03:48:27;;;;;;;0.10;0.10;;;13.80;99.90;;;;;;6209411;23;20378;-73
2022/07/04 03:50:52;;;;;;;0.10;0.10;;;13.80;99.90;;;;;;6210376;23;20384;-73
2022/07/04 03:53:19;;;;;;;0.10;0.10;;;13.80;99.90;;;;;;6209561;23;20059;-73
2022/07/04 03:55:45;;;;;;;0.10;0.10;;;13.90;99.90;;;;;;6209733;23;20079;-74
2022/07/04 03:58:11;;;;;;;0.10;0.10;;;13.80;99.90;;;;;;6209293;23;20012;-73
2022/07/04 04:00:36;;;;;;;0.13;0.13;;;13.80;99.90;;;;;;6208269;23;20043;-73
2022/07/04 04:03:02;;;;;;;0.10;0.10;;;13.80;99.90;;;;;;6209843;23;20413;-73
2022/07/04 04:05:30;;;;;;;0.20;0.20;;;13.90;99.90;;;;;;6182575;23;20099;-72
2022/07/04 04:08:01;;;;;;;0.20;0.20;;;13.80;99.90;;;;;;6181441;23;20024;-73
2022/07/04 04:10:30;;;;;;;0.20;0.20;;;13.90;99.90;;;;;;6182482;23;20565;-73
2022/07/04 04:12:56;;;;;;;0.10;0.10;;;13.80;99.90;;;;;;6209737;23;20017;-74
2022/07/04 04:15:22;;;;;;;0.10;0.10;;;13.90;99.90;;;;;;6209609;23;20337;-73
2022/07/04 04:17:48;;;;;;;0.10;0.10;;;14.00;99.90;;;;;;6210745;23;20016;-73
2022/07/04 04:20:13;;;;;;;0.20;0.20;;;14.00;99.90;;;;;;6183144;23;20025;-74
2022/07/04 04:22:39;;;;;;;0.10;0.10;;;14.00;99.90;;;;;;6209479;23;20020;-74
2022/07/04 04:25:05;;;;;;;0.10;0.10;;;14.10;99.90;;;;;;6209457;23;20255;-74
2022/07/04 04:27:31;;;;;;;0.20;0.20;;;14.10;99.90;;;;;;6182479;23;20032;-74
2022/07/04 04:29:56;;;;;;;0.10;0.10;;;14.10;99.90;;;;;;6178961;23;20017;-74
2022/07/04 04:32:22;;;;;;;0.20;0.20;;;14.10;99.90;;;;;;6210227;23;20027;-74
2022/07/04 04:34:48;;;;;;;0.13;0.13;;;14.20;99.90;;;;;;6209915;23;20038;-74
2022/07/04 04:37:13;;;;;;;0.10;0.10;;;14.20;99.90;;;;;;6177808;23;20031;-74
2022/07/04 04:39:39;;;;;;;0.10;0.10;;;14.20;99.90;;;;;;6208608;23;20044;-76
2022/07/04 04:42:05;;;;;;;0.10;0.10;;;14.30;99.90;;;;;;6208389;23;20108;-74
2022/07/04 04:44:30;;;;;;;0.20;0.20;;;14.30;99.90;;;;;;6206958;23;20083;-73
2022/07/04 04:46:56;;;;;;;0.17;0.17;;;14.40;99.90;;;;;;6209714;23;20020;-74
2022/07/04 04:49:22;;;;;;;0.17;0.17;;;14.40;99.90;;;;;;6180568;23;20055;-74
2022/07/04 04:51:47;;;;;;;0.20;0.20;;;14.50;99.90;;;;;;6182201;23;20021;-73
2022/07/04 04:54:13;;;;;;;0.10;0.10;;;14.40;99.90;;;;;;6207084;23;20021;-73
2022/07/04 04:56:38;;;;;;;0.20;0.20;;;14.50;99.90;;;;;;6209404;23;20028;-73
2022/07/04 04:59:04;;;;;;;0.10;0.10;;;14.60;99.90;;;;;;6180721;23;20483;-73
2022/07/04 05:01:30;;;;;;;0.10;0.10;;;14.70;99.90;;;;;;6180751;23;20013;-73
2022/07/04 05:03:55;;;;;;;0.10;0.10;;;14.60;99.90;;;;;;6182878;23;20021;-74
2022/07/04 05:06:21;;;;;;;0.10;0.10;;;14.70;99.90;;;;;;6207896;23;20091;-73
2022/07/04 05:08:48;;;;;;;0.10;0.10;;;14.70;99.90;;;;;;6181858;23;20116;-73
2022/07/04 05:11:13;;;;;;;0.10;0.10;;;14.80;99.90;;;;;;6210305;23;20024;-74
2022/07/04 05:13:39;;;;;;;0.20;0.20;;;14.80;99.90;;;;;;6207626;23;20441;-74
2022/07/04 05:16:05;;;;;;;0.20;0.20;;;14.90;99.90;;;;;;6181752;23;20020;-74
2022/07/04 05:18:30;;;;;;;0.10;0.10;;;15.00;99.90;;;;;;6182283;23;20674;-75
2022/07/04 05:20:56;;;;;;;0.10;0.10;;;14.90;99.90;;;;;;6183145;23;20593;-74
2022/07/04 05:23:21;;;;;;;0.10;0.10;;;15.00;99.90;;;;;;6182220;23;20512;-74
2022/07/04 05:25:48;;;;;;;0.20;0.20;;;15.10;99.90;;;;;;6210301;23;20102;-74
2022/07/04 05:28:13;;;;;;;0.20;0.20;;;15.20;99.90;;;;;;6182340;23;20028;-74
2022/07/04 05:30:39;;;;;;;0.20;0.20;;;15.30;99.90;;;;;;6182863;23;20437;-75
2022/07/04 05:33:05;;;;;;;0.20;0.20;;;15.30;99.90;;;;;;6206412;23;20509;-74
2022/07/04 05:35:31;;;;;;;0.10;0.10;;;15.30;99.90;;;;;;6184009;23;20074;-74
2022/07/04 05:37:57;;;;;;;0.20;0.20;;;15.40;99.90;;;;;;6207554;23;20016;-75
2022/07/04 05:40:23;;;;;;;0.20;0.20;;;15.40;99.90;;;;;;6208538;23;20454;-74
2022/07/04 05:42:48;;;;;;;0.10;0.10;;;15.40;99.90;;;;;;6210037;23;20085;-75
2022/07/04 05:45:14;;;;;;;0.10;0.10;;;15.50;99.90;;;;;;6183398;23;20012;-75
2022/07/04 05:47:40;;;;;;;0.10;0.10;;;15.50;99.90;;;;;;6182508;23;20017;-76
2022/07/04 05:50:06;;;;;;;0.10;0.10;;;15.50;99.90;;;;;;6181063;23;20027;-74
2022/07/04 05:52:31;;;;;;;0.20;0.20;;;15.50;99.90;;;;;;6208385;23;20070;-74
2022/07/04 05:54:57;;;;;;;0.10;0.10;;;15.60;99.90;;;;;;6207469;23;20092;-76
2022/07/04 05:57:22;;;;;;;0.20;0.20;;;15.60;99.90;;;;;;6183241;23;20012;-75
2022/07/04 05:59:49;;;;;;;0.20;0.20;;;15.70;99.90;;;;;;6206928;23;20310;-75
2022/07/04 06:02:15;;;;;;;0.20;0.20;;;15.80;99.90;;;;;;6180313;23;20020;-75
2022/07/04 06:04:40;;;;;;;0.20;0.20;;;15.80;99.90;;;;;;6182824;23;20024;-76
2022/07/04 06:07:06;;;;;;;0.10;0.10;;;15.80;99.90;;;;;;6180667;23;20016;-75
2022/07/04 06:09:32;;;;;;;0.10;0.10;;;15.90;99.90;;;;;;6206945;23;20449;-78
2022/07/04 06:11:58;;;;;;;0.10;0.10;;;15.90;99.90;;;;;;6206546;23;20016;-75
2022/07/04 06:14:24;;;;;;;0.15;0.15;;;15.90;99.90;;;;;;6180173;23;20325;-74
2022/07/04 06:16:49;;;;;;;0.10;0.10;;;15.90;99.90;;;;;;6181694;23;20023;-74
2022/07/04 06:19:15;;;;;;;0.20;0.20;;;15.90;99.90;;;;;;6180312;23;20027;-74
2022/07/04 06:21:40;;;;;;;0.20;0.20;;;16.00;99.90;;;;;;6206143;23;20020;-74
2022/07/04 06:24:06;;;;;;;0.10;0.10;;;16.00;99.90;;;;;;6208632;23;20334;-74
2022/07/04 06:26:32;;;;;;;0.20;0.20;;;16.10;99.90;;;;;;6184518;23;20051;-74
2022/07/04 06:28:57;;;;;;;0.20;0.20;;;16.10;99.90;;;;;;6182214;23;20336;-74
2022/07/04 06:31:23;;;;;;;0.20;0.20;;;16.20;99.90;;;;;;6185354;23;20519;-74
2022/07/04 06:36:33;;;;;;;0.20;0.20;;;16.20;99.90;;;;;;6210303;23;20021;-73
2022/07/04 06:38:59;;;;;;;0.20;0.20;;;16.30;99.90;;;;;;6207991;23;20410;-73
2022/07/04 06:41:25;;;;;;;0.20;0.20;;;16.40;99.90;;;;;;6210777;23;20016;-73
2022/07/04 06:43:50;;;;;;;0.13;0.13;;;16.50;99.90;;;;;;6209540;23;20108;-74
2022/07/04 06:46:16;;;;;;;0.20;0.20;;;16.50;99.90;;;;;;6183305;23;20048;-74
2022/07/04 06:48:42;;;;;;;0.10;0.10;;;16.60;99.90;;;;;;6210173;23;20425;-74
2022/07/04 06:51:08;;;;;;;0.10;0.10;;;16.60;99.90;;;;;;6211162;23;20499;-75
2022/07/04 06:53:34;;;;;;;0.20;0.20;;;16.70;99.90;;;;;;6209301;23;20013;-74
2022/07/04 06:55:59;;;;;;;0.20;0.20;;;16.70;99.90;;;;;;6182491;23;20089;-74
2022/07/04 06:58:25;;;;;;;0.20;0.20;;;16.90;99.90;;;;;;6208591;23;20020;-74
2022/07/04 07:00:51;;;;;;;0.10;0.10;;;16.90;99.90;;;;;;6209623;23;20081;-74
2022/07/04 07:03:16;;;;;;;0.10;0.10;;;17.00;99.90;;;;;;6183590;23;20017;-74
2022/07/04 07:05:42;;;;;;;0.20;0.20;;;17.10;99.90;;;;;;6184495;23;20015;-74
2022/07/04 07:08:08;;;;;;;0.20;0.20;;;17.10;99.90;;;;;;6207561;23;20035;-74
2022/07/04 07:10:35;;;;;;;0.20;0.20;;;17.20;99.90;;;;;;6210151;23;20096;-74
2022/07/04 07:13:02;;;;;;;0.20;0.20;;;17.30;99.90;;;;;;6208950;23;20544;-74
2022/07/04 07:15:28;;;;;;;0.10;0.10;;;17.30;99.90;;;;;;6179311;23;20020;-73
2022/07/04 07:17:54;;;;;;;0.10;0.10;;;17.30;99.90;;;;;;6206617;23;20097;-74
2022/07/04 07:20:20;;;;;;;0.20;0.20;;;17.40;99.90;;;;;;6209568;23;20048;-73
2022/07/04 07:22:46;;;;;;;0.20;0.20;;;17.40;99.90;;;;;;6180721;23;20036;-73
2022/07/04 07:25:12;;;;;;;0.20;0.20;;;17.50;99.90;;;;;;6178736;23;20016;-72
2022/07/04 07:27:39;;;;;;;0.20;0.20;;;17.60;99.90;;;;;;6182181;23;20020;-72
2022/07/04 07:30:06;;;;;;;0.15;0.15;;;17.70;99.90;;;;;;6210047;23;20021;-72
2022/07/04 07:32:32;;;;;;;0.10;0.10;;;17.90;99.90;;;;;;6181683;23;20108;-72
2022/07/04 07:34:58;;;;;;;0.20;0.20;;;18.00;99.90;;;;;;6208829;23;20043;-73
2022/07/04 07:37:24;;;;;;;0.10;0.10;;;18.10;99.90;;;;;;6211053;23;20025;-74
2022/07/04 07:39:50;;;;;;;0.20;0.20;;;18.00;99.90;;;;;;6207845;23;20100;-72
2022/07/04 07:42:16;;;;;;;0.10;0.10;;;18.10;99.90;;;;;;6211692;23;20397;-73
2022/07/04 07:44:45;;;;;;;0.10;0.10;;;18.10;99.90;;;;;;6178463;23;20028;-72
2022/07/04 07:47:15;;;;;;;0.15;0.15;;;18.10;99.90;;;;;;6182153;23;20352;-73
2022/07/04 07:49:42;;;;;;;0.13;0.13;;;18.00;99.90;;;;;;6180399;23;20651;-72
2022/07/04 07:52:08;;;;;;;0.20;0.20;;;18.10;99.90;;;;;;6178012;23;20032;-73
2022/07/04 07:54:34;;;;;;;0.20;0.20;;;18.10;99.90;;;;;;6205581;23;20016;-73
2022/07/04 07:56:59;;;;;;;0.17;0.17;;;18.20;99.90;;;;;;6209097;23;20012;-72
2022/07/04 07:59:25;;;;;;;0.10;0.10;;;18.20;99.90;;;;;;6177224;23;20035;-74
2022/07/04 08:01:51;;;;;;;0.20;0.20;;;18.30;99.90;;;;;;6179985;23;20111;-73
2022/07/04 08:04:34;;;;;;;0.20;0.20;;;18.20;99.90;;;;;;6206733;23;20078;-73
2022/07/04 08:07:06;;;;;;;0.10;0.10;;;18.20;99.90;;;;;;6183175;23;20024;-73
2022/07/04 08:09:32;;;;;;;0.13;0.13;;;18.20;99.90;;;;;;6180614;23;20361;-72
2022/07/04 08:11:58;;;;;;;0.15;0.15;;;18.10;99.90;;;;;;6181939;23;20017;-72
2022/07/04 08:14:24;;;;;;;0.10;0.10;;;18.10;99.90;;;;;;6205636;23;20708;-72
2022/07/04 08:16:50;;;;;;;0.10;0.10;;;18.10;99.90;;;;;;6199472;23;20024;-73
2022/07/04 08:19:16;;;;;;;0.10;0.10;;;18.00;99.90;;;;;;6206107;23;20094;-73
2022/07/04 08:21:41;;;;;;;0.20;0.20;;;18.00;99.90;;;;;;6209667;23;20078;-72
2022/07/04 08:24:07;;;;;;;0.10;0.10;;;18.00;99.90;;;;;;6204783;23;20766;-72
2022/07/04 08:26:33;;;;;;;0.20;0.20;;;18.00;99.90;;;;;;6177466;23;20020;-72
2022/07/04 08:28:59;;;;;;;0.20;0.20;;;17.90;99.90;;;;;;6203655;23;20320;-72
2022/07/04 08:31:28;;;;;;;0.20;0.20;;;18.00;99.90;;;;;;6205964;23;20247;-73
2022/07/04 08:33:54;;;;;;;0.13;0.13;;;18.00;99.90;;;;;;6208269;23;20016;-72
2022/07/04 08:36:19;;;;;;;0.10;0.10;;;18.00;99.90;;;;;;6182582;23;20017;-72
2022/07/04 08:38:45;;;;;;;0.20;0.20;;;18.00;99.90;;;;;;6208562;23;20013;-72
2022/07/04 08:41:14;;;;;;;0.20;0.20;;;18.10;99.90;;;;;;6203353;23;20524;-72
2022/07/04 08:43:41;;;;;;;0.20;0.20;;;18.10;99.90;;;;;;6204104;23;20017;-73
2022/07/04 08:46:10;;;;;;;0.10;0.10;;;18.20;99.90;;;;;;6178008;23;20078;-73
2022/07/04 08:48:38;;;;;;;0.17;0.17;;;18.20;99.90;;;;;;6178575;23;20418;-73
2022/07/04 08:51:16;;;;;;;0.10;0.10;;;18.30;99.90;;;;;;6204525;23;20020;-72
2022/07/04 08:53:54;;;;;;;0.10;0.10;;;18.50;99.90;;;;;;6204747;23;20118;-73
2022/07/04 08:59:07;;;;;;;0.17;0.17;;;18.60;99.90;;;;;;6203358;23;20092;-73
2022/07/04 09:01:34;;;;;;;0.20;0.20;;;18.70;99.90;;;;;;6180425;23;20025;-73
2022/07/04 09:04:01;;;;;;;0.10;0.10;;;18.70;99.90;;;;;;6203683;23;20016;-73
2022/07/04 09:06:29;;;;;;;0.17;0.17;;;18.80;99.90;;;;;;6204680;23;20021;-73
2022/07/04 09:08:55;;;;;;;0.20;0.20;;;18.80;99.90;;;;;;6175456;23;20020;-73
2022/07/04 09:11:21;;;;;;;0.20;0.20;;;18.80;99.90;;;;;;6203879;23;20029;-73
2022/07/04 09:13:48;;;;;;;0.20;0.20;;;18.90;99.90;;;;;;6205967;23;20384;-73
2022/07/04 09:16:14;;;;;;;0.15;0.15;;;18.80;99.90;;;;;;6205528;23;20053;-72
2022/07/04 09:18:40;;;;;;;0.20;0.20;;;18.90;99.90;;;;;;6205028;23;20350;-73
2022/07/04 09:21:07;;;;;;;0.20;0.20;;;19.00;99.90;;;;;;6204771;23;20028;-72
2022/07/04 09:23:40;;;;;;;0.20;0.20;;;19.00;99.90;;;;;;6175840;23;20544;-72
2022/07/04 09:26:21;;;;;;;0.20;0.20;;;19.10;99.90;;;;;;6175689;23;20028;-72
2022/07/04 09:28:57;;;;;;;0.20;0.20;;;19.20;99.90;;;;;;6204460;23;20128;-71
2022/07/04 09:31:28;;;;;;;0.20;0.20;;;19.20;99.90;;;;;;6203729;23;20028;-73
2022/07/04 09:33:55;;;;;;;0.20;0.20;;;19.30;99.90;;;;;;6176992;23;20020;-72
2022/07/04 09:36:23;;;;;;;0.17;0.17;;;19.40;99.90;;;;;;6177201;23;20689;-72
2022/07/04 09:39:09;;;;;;;0.10;0.10;;;19.40;99.90;;;;;;6176446;23;20086;-73
2022/07/04 09:41:54;;;;;;;0.20;0.20;;;19.40;99.90;;;;;;6176886;23;20477;-73
2022/07/04 09:44:21;;;;;;;0.10;0.10;;;19.40;99.90;;;;;;6202975;23;20020;-73
2022/07/04 09:46:47;;;;;;;0.20;0.20;;;19.40;99.90;;;;;;6175655;23;20258;-72
2022/07/04 09:49:12;;;;;;;0.15;0.15;;;19.40;99.90;;;;;;6204125;23;20103;-73
2022/07/04 09:51:48;;;;;;;0.20;0.20;;;19.40;99.90;;;;;;6172903;23;20099;-72
2022/07/04 09:54:26;;;;;;;0.10;0.10;;;19.30;99.90;;;;;;6173105;23;20020;-73
2022/07/04 09:56:54;;;;;;;0.10;0.10;;;19.40;99.90;;;;;;6203440;23;20020;-74
2022/07/04 09:59:21;;;;;;;0.20;0.20;;;19.40;99.90;;;;;;6176807;23;20730;-72
2022/07/04 10:01:47;;;;;;;0.20;0.20;;;19.40;99.90;;;;;;6173438;23;20467;-72
2022/07/04 10:04:13;;;;;;;0.20;0.20;;;19.40;99.90;;;;;;6203552;23;20641;-72
2022/07/04 10:06:41;;;;;;;0.20;0.20;;;19.50;99.90;;;;;;6176740;23;20013;-71
2022/07/04 10:09:28;;;;;;;0.20;0.20;;;19.60;99.90;;;;;;6176134;23;20032;-72
2022/07/04 10:11:54;;;;;;;0.20;0.20;;;19.70;99.90;;;;;;6159837;23;20025;-71
2022/07/04 10:14:20;;;;;;;0.20;0.20;;;19.80;99.90;;;;;;6196121;23;20165;-71
2022/07/04 10:16:45;;;;;;;0.20;0.20;;;19.90;99.90;;;;;;6204419;23;20504;-71
2022/07/04 10:19:12;;;;;;;0.20;0.20;;;20.10;99.90;;;;;;6176476;23;20024;-71
2022/07/04 10:21:38;;;;;;;0.10;0.10;;;20.20;99.90;;;;;;6176799;23;20067;-72
2022/07/04 10:24:04;;;;;;;0.20;0.20;;;20.30;99.90;;;;;;6175929;23;20021;-72
2022/07/04 10:26:31;;;;;;;0.10;0.10;;;20.40;99.90;;;;;;6178258;23;20024;-72
2022/07/04 10:28:57;;;;;;;0.10;0.10;;;20.50;99.90;;;;;;6174319;23;20099;-72
2022/07/04 10:31:25;;;;;;;0.20;0.20;;;20.60;99.90;;;;;;6203498;23;20029;-71
2022/07/04 10:33:52;;;;;;;0.10;0.10;;;20.60;99.90;;;;;;6204797;23;20084;-71
2022/07/04 10:36:28;;;;;;;0.17;0.17;;;20.60;99.90;;;;;;6202517;23;20021;-72
2022/07/04 10:38:58;;;;;;;0.20;0.20;;;20.70;99.90;;;;;;6177432;23;20025;-71
2022/07/04 10:41:25;;;;;;;0.20;0.20;;;20.70;99.90;;;;;;6203447;23;20023;-71
2022/07/04 10:43:52;;;;;;;0.10;0.10;;;20.70;99.90;;;;;;6204673;23;20344;-72
2022/07/04 10:46:29;;;;;;;0.20;0.20;;;20.70;99.90;;;;;;6208409;23;20468;-72
2022/07/04 10:49:03;;;;;;;0.20;0.20;;;20.70;99.90;;;;;;6204618;23;20624;-71
2022/07/04 10:51:45;;;;;;;0.10;0.10;;;20.70;99.90;;;;;;6209289;23;20024;-71
2022/07/04 10:54:18;;;;;;;0.20;0.20;;;20.80;99.90;;;;;;6181149;23;20101;-71
2022/07/04 10:57:17;;;;;;;0.10;0.10;;;20.80;99.90;;;;;;6177388;23;20024;-73
2022/07/04 11:00:01;;;;;;;0.10;0.10;;;20.90;99.90;;;;;;6206713;23;20032;-72
2022/07/04 11:02:30;;;;;;;0.20;0.20;;;20.90;99.90;;;;;;6208364;23;20031;-71
2022/07/04 11:05:10;;;;;;;0.20;0.20;;;20.90;99.90;;;;;;6179094;23;20020;-72
2022/07/04 11:07:36;;;;;;;0.20;0.20;;;20.90;99.90;;;;;;6208818;23;20351;-72
2022/07/04 11:10:11;;;;;;;0.20;0.20;;;21.00;99.90;;;;;;6180597;23;20027;-72
2022/07/04 11:12:55;;;;;;;0.20;0.20;;;21.00;99.90;;;;;;6181064;23;20024;-72
2022/07/04 11:15:32;;;;;;;0.20;0.20;;;21.10;99.90;;;;;;6210033;23;20029;-72
2022/07/04 11:17:59;;;;;;;0.20;0.20;;;21.20;99.90;;;;;;6207829;23;20498;-73
2022/07/04 11:20:27;;;;;;;0.20;0.20;;;21.10;99.90;;;;;;6211997;23;20023;-72
2022/07/04 11:22:53;;;;;;;0.20;0.20;;;21.00;99.90;;;;;;6180723;23;20115;-72
2022/07/04 11:25:19;;;;;;;0.20;0.20;;;20.90;99.90;;;;;;6210708;23;20396;-72
2022/07/04 11:27:44;;;;;;;0.20;0.20;;;20.80;99.90;;;;;;6180248;23;20095;-73
2022/07/04 11:30:11;;;;;;;0.20;0.20;;;20.70;99.90;;;;;;6208929;23;20019;-72
2022/07/04 11:32:38;;;;;;;0.20;0.20;;;20.80;99.90;;;;;;6202455;23;20453;-72
2022/07/04 11:35:05;;;;;;;0.10;0.10;;;20.90;99.90;;;;;;6209651;23;20021;-72
2022/07/04 11:37:31;;;;;;;0.20;0.20;;;21.10;99.90;;;;;;6206169;23;20071;-71
2022/07/04 11:45:02;;;;;;;0.20;0.20;;;21.20;99.90;;;;;;6181842;23;20072;-72
2022/07/04 11:45:53;;;;;;;0.17;0.17;;;21.30;99.90;;;;;;6208184;23;20029;-72
2022/07/04 11:48:22;;;;;;;0.20;0.20;;;21.30;99.90;;;;;;6211112;23;20013;-72
2022/07/04 11:50:48;;;;;;;0.20;0.20;;;21.30;99.90;;;;;;6207883;23;20341;-72
2022/07/04 11:53:14;;;;;;;0.20;0.20;;;21.40;99.90;;;;;;6207492;23;20032;-72
2022/07/04 11:55:56;;;;;;;0.17;0.17;;;21.40;99.90;;;;;;6210248;23;20017;-71
2022/07/04 11:58:22;;;;;;;0.13;0.13;;;21.50;99.90;;;;;;6209794;23;20890;-72
2022/07/04 12:00:48;;;;;;;0.10;0.10;;;21.60;99.90;;;;;;6180690;23;20091;-72
2022/07/04 12:03:13;;;;;;;0.10;0.10;;;21.60;99.90;;;;;;6206309;23;20114;-72
2022/07/04 12:05:39;;;;;;;0.13;0.13;;;21.60;99.90;;;;;;6180701;23;20017;-72
2022/07/04 12:08:07;;;;;;;0.20;0.20;;;21.70;99.50;;;;;;6204823;23;20027;-72
2022/07/04 12:10:33;;;;;;;0.20;0.20;;;21.60;99.90;;;;;;6207164;23;20410;-72
2022/07/04 12:13:06;;;;;;;0.15;0.15;;;21.60;99.80;;;;;;6206956;23;20027;-72
2022/07/04 12:15:39;;;;;;;0.10;0.10;;;21.60;99.90;;;;;;6177349;23;20075;-72
2022/07/04 12:18:14;;;;;;;0.17;0.17;;;21.60;99.20;;;;;;6205456;23;20098;-72
2022/07/04 12:20:40;;;;;;;0.20;0.20;;;21.70;99.60;;;;;;6206311;23;20055;-72
2022/07/04 12:23:06;;;;;;;0.20;0.20;;;21.70;99.90;;;;;;6206516;23;20100;-72
2022/07/04 12:25:38;;;;;;;0.20;0.20;;;21.70;98.70;;;;;;6181815;23;20016;-73
2022/07/04 12:28:13;;;;;;;0.20;0.20;;;21.70;98.40;;;;;;6176377;23;20020;-72
2022/07/04 12:30:47;;;;;;;0.20;0.20;;;21.70;97.80;;;;;;6209489;23;20067;-73
2022/07/04 12:33:13;;;;;;;0.20;0.20;;;21.70;99.10;;;;;;6181704;23;20016;-73
2022/07/04 12:35:42;;;;;;;0.20;0.20;;;21.80;98.70;;;;;;6205697;23;20023;-72
2022/07/04 12:38:21;;;;;;;0.20;0.20;;;21.90;99.30;;;;;;6179047;23;20377;-72
2022/07/04 12:40:56;;;;;;;0.20;0.20;;;21.80;99.30;;;;;;6182498;23;20024;-73
2022/07/04 12:43:24;;;;;;;0.20;0.20;;;21.90;99.20;;;;;;6204138;23;20016;-73
2022/07/04 12:45:55;;;;;;;0.20;0.20;;;22.00;98.50;;;;;;6206145;23;20799;-72
2022/07/04 12:48:25;;;;;;;;;;;22.10;99.10;;;;;;6179241;23;20468;-72
2022/07/04 12:50:52;;;;;;;0.20;0.20;;;22.10;99.40;;;;;;6179053;23;19928;-72
2022/07/04 12:53:19;;;;;;;0.20;0.20;;;22.10;98.90;;;;;;6179248;23;20132;-72
2022/07/04 12:55:47;;;;;;;0.20;0.20;;;22.20;98.80;;;;;;6178492;23;20024;-72
2022/07/04 12:58:13;;;;;;;0.20;0.20;;;22.20;99.00;;;;;;6205168;23;20330;-71
2022/07/04 13:00:39;;;;;;;0.20;0.20;;;22.10;98.80;;;;;;6206586;23;20031;-72
2022/07/04 13:03:05;;;;;;;0.20;0.20;;;22.10;97.90;;;;;;6177607;23;20016;-71